Terminal Aerodrome Forecast
Issued by NWS

Current Version | Previous Version | Text Only | Print | Product List | Glossary Off
Versions: 1 2 3 4 5 6 7 8 9 10 11 12 13 14 15 16 17 18 19 20 21 22 23 24 25 26 27

000
FTUS41 KILN 220900 AAA
TAFLCK
TAF AMD
KLCK 220942Z 2210/2306 00000KT 5SM BR SKC
      TEMPO 2210/2212 2SM BR
     FM221300 20006KT P6SM SCT040
     FM230000 22005KT P6SM SCT250=

USA.gov is the U.S. government's official web portal to all federal, state and local government web resources and services.